Time,TemperatureF,DewpointF,PressureIn,WindDirection,WindDirectionDegrees,WindSpeedMPH,WindSpeedGustMPH,Humidity,HourlyPrecipIn,Conditions,Clouds,dailyrainin,SoftwareType,DateUTC
2013-01-16 00:05:00,41.2,40.7,29.77,NW,315,1.7,-999.0,98,-99.99,,,0.00,Acu-Link.com,2013-01-16 05:05:00,
2013-01-16 00:21:00,41.2,40.7,29.77,NNE,22,2.2,-999.0,98,-99.99,,,0.15,Acu-Link.com,2013-01-16 05:21:00,
2013-01-16 00:36:00,41.4,40.9,29.76,NE,45,0.0,-999.0,98,-99.99,,,0.18,Acu-Link.com,2013-01-16 05:36:00,
2013-01-16 00:51:00,41.5,41.0,29.74,ESE,112,0.0,-999.0,98,-99.99,,,0.22,Acu-Link.com,2013-01-16 05:51:00,
2013-01-16 01:06:00,41.7,41.2,29.73,East,90,2.2,-999.0,98,-99.99,,,0.26,Acu-Link.com,2013-01-16 06:06:00,
2013-01-16 01:22:00,41.9,41.4,29.73,WNW,292,0.0,-999.0,98,-99.99,,,0.28,Acu-Link.com,2013-01-16 06:22:00,
2013-01-16 01:37:00,41.9,41.4,29.75,NNW,337,0.0,-999.0,98,-99.99,,,0.29,Acu-Link.com,2013-01-16 06:37:00,
2013-01-16 01:52:00,41.7,41.2,29.74,NNW,337,0.0,-999.0,98,-99.99,,,0.34,Acu-Link.com,2013-01-16 06:52:00,
2013-01-16 02:08:00,41.7,41.2,29.73,West,270,1.7,-999.0,98,-99.99,,,0.37,Acu-Link.com,2013-01-16 07:08:00,
2013-01-16 02:23:00,41.7,41.2,29.74,North,0,0.0,-999.0,98,-99.99,,,0.37,Acu-Link.com,2013-01-16 07:23:00,
2013-01-16 02:38:00,41.7,41.2,29.74,West,270,1.7,-999.0,98,-99.99,,,0.37,Acu-Link.com,2013-01-16 07:38:00,
2013-01-16 02:54:00,41.7,41.2,29.73,NE,45,0.0,-999.0,98,-99.99,,,0.37,Acu-Link.com,2013-01-16 07:54:00,
2013-01-16 03:09:00,41.7,41.2,29.72,West,270,1.7,-999.0,98,-99.99,,,0.38,Acu-Link.com,2013-01-16 08:09:00,
2013-01-16 03:24:00,41.9,41.4,29.73,NW,315,0.0,-999.0,98,-99.99,,,0.39,Acu-Link.com,2013-01-16 08:24:00,
2013-01-16 03:39:00,41.9,41.4,29.73,SSW,202,0.0,-999.0,98,-99.99,,,0.39,Acu-Link.com,2013-01-16 08:39:00,
2013-01-16 03:55:00,41.9,41.4,29.72,South,180,0.0,-999.0,98,-99.99,,,0.40,Acu-Link.com,2013-01-16 08:55:00,
2013-01-16 04:22:00,42.1,41.6,29.70,South,180,0.0,-999.0,98,-99.99,,,0.40,Acu-Link.com,2013-01-16 09:22:00,
2013-01-16 04:37:00,42.3,41.8,29.73,WNW,292,2.2,-999.0,98,-99.99,,,0.41,Acu-Link.com,2013-01-16 09:37:00,
2013-01-16 04:53:00,42.3,41.8,29.74,SSW,202,2.2,-999.0,98,-99.99,,,0.44,Acu-Link.com,2013-01-16 09:53:00,
2013-01-16 05:08:00,42.6,42.1,29.72,South,180,0.0,-999.0,98,-99.99,,,0.46,Acu-Link.com,2013-01-16 10:08:00,
2013-01-16 05:23:00,42.6,42.1,29.74,SW,225,2.2,-999.0,98,-99.99,,,0.54,Acu-Link.com,2013-01-16 10:23:00,
2013-01-16 05:39:00,42.6,42.1,29.74,SSE,157,0.0,-999.0,98,-99.99,,,0.57,Acu-Link.com,2013-01-16 10:39:00,
2013-01-16 05:54:00,42.6,42.1,29.75,West,270,2.7,-999.0,98,-99.99,,,0.59,Acu-Link.com,2013-01-16 10:54:00,
2013-01-16 06:09:00,42.6,42.1,29.74,SSW,202,0.0,-999.0,98,-99.99,,,0.60,Acu-Link.com,2013-01-16 11:09:00,
2013-01-16 06:24:00,42.6,42.1,29.76,West,270,1.7,-999.0,98,-99.99,,,0.66,Acu-Link.com,2013-01-16 11:24:00,
2013-01-16 06:40:00,42.6,42.1,29.77,West,270,0.0,-999.0,98,-99.99,,,0.68,Acu-Link.com,2013-01-16 11:40:00,
2013-01-16 06:55:00,42.6,42.1,29.78,WNW,292,4.2,-999.0,98,-99.99,,,0.68,Acu-Link.com,2013-01-16 11:55:00,
2013-01-16 07:10:00,42.4,41.9,29.79,WSW,247,1.7,-999.0,98,-99.99,,,0.69,Acu-Link.com,2013-01-16 12:10:00,
2013-01-16 07:25:00,42.4,41.9,29.81,SSW,202,0.0,-999.0,98,-99.99,,,0.69,Acu-Link.com,2013-01-16 12:25:00,
2013-01-16 07:41:00,42.4,41.9,29.82,South,180,0.0,-999.0,98,-99.99,,,0.70,Acu-Link.com,2013-01-16 12:41:00,
2013-01-16 07:56:00,42.4,41.9,29.79,SSE,157,5.8,-999.0,98,-99.99,,,0.72,Acu-Link.com,2013-01-16 12:56:00,
2013-01-16 08:11:00,42.8,42.3,29.81,West,270,3.2,-999.0,98,-99.99,,,0.72,Acu-Link.com,2013-01-16 13:11:00,
2013-01-16 08:27:00,43.3,42.8,29.79,SSW,202,2.7,-999.0,98,-99.99,,,0.72,Acu-Link.com,2013-01-16 13:27:00,
2013-01-16 08:42:00,43.7,43.2,29.77,East,90,1.1,-999.0,98,-99.99,,,0.72,Acu-Link.com,2013-01-16 13:42:00,
2013-01-16 08:57:00,44.2,43.7,29.79,WNW,292,2.2,-999.0,98,-99.99,,,0.72,Acu-Link.com,2013-01-16 13:57:00,
2013-01-16 09:13:00,44.2,43.7,29.75,NNE,22,3.2,-999.0,98,-99.99,,,0.72,Acu-Link.com,2013-01-16 14:13:00,
2013-01-16 09:28:00,44.4,43.9,29.77,NNW,337,3.2,-999.0,98,-99.99,,,0.72,Acu-Link.com,2013-01-16 14:28:00,
2013-01-16 09:43:00,44.6,44.1,29.79,NNE,22,4.2,-999.0,98,-99.99,,,0.72,Acu-Link.com,2013-01-16 14:43:00,
2013-01-16 09:58:00,44.4,43.9,29.81,WNW,292,1.1,-999.0,98,-99.99,,,0.72,Acu-Link.com,2013-01-16 14:58:00,
2013-01-16 10:14:00,44.8,44.3,29.80,NNE,22,2.7,-999.0,98,-99.99,,,0.72,Acu-Link.com,2013-01-16 15:14:00,
2013-01-16 10:29:00,45.7,45.2,29.80,SSE,157,2.7,-999.0,98,-99.99,,,0.72,Acu-Link.com,2013-01-16 15:29:00,
2013-01-16 10:44:00,46.0,45.5,29.81,SE,135,2.7,-999.0,98,-99.99,,,0.72,Acu-Link.com,2013-01-16 15:44:00,
2013-01-16 11:00:00,46.2,45.7,29.79,WNW,292,1.7,-999.0,98,-99.99,,,0.72,Acu-Link.com,2013-01-16 16:00:00,
2013-01-16 11:15:00,46.4,45.9,29.84,West,270,2.2,-999.0,98,-99.99,,,0.72,Acu-Link.com,2013-01-16 16:15:00,
2013-01-16 11:30:00,46.0,45.5,29.83,WNW,292,2.7,-999.0,98,-99.99,,,0.72,Acu-Link.com,2013-01-16 16:30:00,
2013-01-16 11:46:00,46.4,45.9,29.82,West,270,1.7,-999.0,98,-99.99,,,0.72,Acu-Link.com,2013-01-16 16:46:00,
2013-01-16 12:01:00,46.6,46.1,29.82,SSE,157,2.2,-999.0,98,-99.99,,,0.72,Acu-Link.com,2013-01-16 17:01:00,
2013-01-16 12:16:00,46.9,46.4,29.82,WSW,247,1.7,-999.0,98,-99.99,,,0.72,Acu-Link.com,2013-01-16 17:16:00,
2013-01-16 12:31:00,47.1,46.6,29.83,South,180,2.2,-999.0,98,-99.99,,,0.72,Acu-Link.com,2013-01-16 17:31:00,
2013-01-16 12:47:00,47.8,47.3,29.82,WSW,247,0.0,-999.0,98,-99.99,,,0.72,Acu-Link.com,2013-01-16 17:47:00,
2013-01-16 13:02:00,47.7,47.2,29.81,South,180,2.2,-999.0,98,-99.99,,,0.72,Acu-Link.com,2013-01-16 18:02:00,
2013-01-16 13:17:00,47.1,46.6,29.81,SSW,202,3.7,-999.0,98,-99.99,,,0.73,Acu-Link.com,2013-01-16 18:17:00,
2013-01-16 13:33:00,46.8,46.3,29.80,SSE,157,4.2,-999.0,98,-99.99,,,0.73,Acu-Link.com,2013-01-16 18:33:00,
2013-01-16 13:48:00,47.1,46.6,29.79,SSE,157,3.2,-999.0,98,-99.99,,,0.73,Acu-Link.com,2013-01-16 18:48:00,
2013-01-16 14:03:00,47.7,47.2,29.77,WSW,247,2.7,-999.0,98,-99.99,,,0.73,Acu-Link.com,2013-01-16 19:03:00,
2013-01-16 14:19:00,48.7,48.2,29.76,SSW,202,2.7,-999.0,98,-99.99,,,0.73,Acu-Link.com,2013-01-16 19:19:00,
2013-01-16 14:34:00,48.9,48.4,29.77,WSW,247,2.2,-999.0,98,-99.99,,,0.73,Acu-Link.com,2013-01-16 19:34:00,
2013-01-16 14:49:00,49.3,48.8,29.77,West,270,1.1,-999.0,98,-99.99,,,0.73,Acu-Link.com,2013-01-16 19:49:00,
2013-01-16 15:04:00,49.1,48.6,29.77,West,270,2.2,-999.0,98,-99.99,,,0.73,Acu-Link.com,2013-01-16 20:04:00,
2013-01-16 15:20:00,48.0,47.5,29.79,WNW,292,3.2,-999.0,98,-99.99,,,0.73,Acu-Link.com,2013-01-16 20:20:00,
2013-01-16 15:35:00,47.7,47.2,29.79,West,270,5.3,-999.0,98,-99.99,,,0.73,Acu-Link.com,2013-01-16 20:35:00,
2013-01-16 15:50:00,47.3,46.8,29.80,SW,225,1.7,-999.0,98,-99.99,,,0.73,Acu-Link.com,2013-01-16 20:50:00,
2013-01-16 16:06:00,47.1,46.6,29.81,West,270,2.2,-999.0,98,-99.99,,,0.73,Acu-Link.com,2013-01-16 21:06:00,
2013-01-16 16:21:00,46.8,46.3,29.81,WNW,292,1.1,-999.0,98,-99.99,,,0.74,Acu-Link.com,2013-01-16 21:21:00,
2013-01-16 16:36:00,46.4,45.9,29.82,NNW,337,5.3,-999.0,98,-99.99,,,0.76,Acu-Link.com,2013-01-16 21:36:00,
2013-01-16 16:52:00,44.6,44.1,29.84,North,0,4.7,-999.0,98,-99.99,,,0.77,Acu-Link.com,2013-01-16 21:52:00,
2013-01-16 17:07:00,42.6,42.1,29.83,NW,315,7.3,-999.0,98,-99.99,,,0.77,Acu-Link.com,2013-01-16 22:07:00,
2013-01-16 17:22:00,41.5,41.0,29.85,NW,315,5.3,-999.0,98,-99.99,,,0.77,Acu-Link.com,2013-01-16 22:22:00,
2013-01-16 17:37:00,41.4,40.9,29.85,NNE,22,0.0,-999.0,98,-99.99,,,0.77,Acu-Link.com,2013-01-16 22:37:00,
2013-01-16 17:53:00,41.4,40.9,29.87,SSE,157,0.0,-999.0,98,-99.99,,,0.78,Acu-Link.com,2013-01-16 22:53:00,
2013-01-16 18:08:00,41.4,40.9,29.87,South,180,0.0,-999.0,98,-99.99,,,0.78,Acu-Link.com,2013-01-16 23:08:00,
2013-01-16 18:23:00,41.4,40.9,29.86,South,180,0.0,-999.0,98,-99.99,,,0.78,Acu-Link.com,2013-01-16 23:23:00,
2013-01-16 18:39:00,41.4,40.9,29.86,South,180,0.0,-999.0,98,-99.99,,,0.79,Acu-Link.com,2013-01-16 23:39:00,
2013-01-16 18:54:00,41.4,40.9,29.87,North,0,0.0,-999.0,98,-99.99,,,0.79,Acu-Link.com,2013-01-16 23:54:00,
2013-01-16 19:09:00,41.4,40.9,29.87,NNE,22,0.0,-999.0,98,-99.99,,,0.79,Acu-Link.com,2013-01-17 00:09:00,
2013-01-16 19:25:00,41.4,40.9,29.86,NNE,22,0.0,-999.0,98,-99.99,,,0.80,Acu-Link.com,2013-01-17 00:25:00,
2013-01-16 19:40:00,41.4,40.9,29.87,SE,135,0.0,-999.0,98,-99.99,,,0.80,Acu-Link.com,2013-01-17 00:40:00,
2013-01-16 19:55:00,41.4,40.9,29.82,ESE,112,0.0,-999.0,98,-99.99,,,0.80,Acu-Link.com,2013-01-17 00:55:00,
2013-01-16 20:10:00,41.4,40.9,29.84,SE,135,0.0,-999.0,98,-99.99,,,0.80,Acu-Link.com,2013-01-17 01:10:00,
2013-01-16 20:26:00,41.4,40.9,29.85,WNW,292,0.0,-999.0,98,-99.99,,,0.80,Acu-Link.com,2013-01-17 01:26:00,
2013-01-16 20:41:00,41.4,40.9,29.87,NE,45,0.0,-999.0,98,-99.99,,,0.80,Acu-Link.com,2013-01-17 01:41:00,
2013-01-16 20:56:00,41.5,41.0,29.87,NW,315,0.0,-999.0,98,-99.99,,,0.80,Acu-Link.com,2013-01-17 01:56:00,
2013-01-16 21:12:00,41.5,41.0,29.86,North,0,0.0,-999.0,98,-99.99,,,0.80,Acu-Link.com,2013-01-17 02:12:00,
2013-01-16 21:27:00,41.5,41.0,29.84,ESE,112,0.0,-999.0,98,-99.99,,,0.80,Acu-Link.com,2013-01-17 02:27:00,
2013-01-16 21:42:00,41.4,40.9,29.86,West,270,2.2,-999.0,98,-99.99,,,0.80,Acu-Link.com,2013-01-17 02:42:00,
2013-01-16 21:58:00,41.4,40.9,29.86,NE,45,1.7,-999.0,98,-99.99,,,0.80,Acu-Link.com,2013-01-17 02:58:00,
2013-01-16 22:13:00,41.2,40.7,29.86,NNW,337,0.0,-999.0,98,-99.99,,,0.80,Acu-Link.com,2013-01-17 03:13:00,
2013-01-16 22:28:00,41.4,40.9,29.85,NNE,22,1.1,-999.0,98,-99.99,,,0.80,Acu-Link.com,2013-01-17 03:28:00,
2013-01-16 22:43:00,41.4,40.9,29.84,NW,315,1.1,-999.0,98,-99.99,,,0.80,Acu-Link.com,2013-01-17 03:43:00,
2013-01-16 22:59:00,41.4,40.9,29.84,NNE,22,2.7,-999.0,98,-99.99,,,0.80,Acu-Link.com,2013-01-17 03:59:00,
2013-01-16 23:14:00,41.4,40.9,29.84,WNW,292,1.1,-999.0,98,-99.99,,,0.80,Acu-Link.com,2013-01-17 04:14:00,
2013-01-16 23:29:00,41.4,40.9,29.83,NNE,22,2.7,-999.0,98,-99.99,,,0.80,Acu-Link.com,2013-01-17 04:29:00,
2013-01-16 23:45:00,41.4,40.9,29.83,SSE,157,0.0,-999.0,98,-99.99,,,0.80,Acu-Link.com,2013-01-17 04:45:00,